sensor_id;sensor_type;location;lat;lon;timestamp;temperature;humidity
11639;DHT22;5875;35.940;126.892;2023-04-08T00:01:15;13.70;99.90
11639;DHT22;5875;35.940;126.892;2023-04-08T00:03:42;13.80;99.90
11639;DHT22;5875;35.940;126.892;2023-04-08T00:06:10;14.10;99.90
11639;DHT22;5875;35.940;126.892;2023-04-08T00:08:37;14.20;99.90
11639;DHT22;5875;35.940;126.892;2023-04-08T00:11:04;14.40;99.90
11639;DHT22;5875;35.940;126.892;2023-04-08T00:13:32;14.50;99.90
11639;DHT22;5875;35.940;126.892;2023-04-08T00:15:59;14.80;99.90
11639;DHT22;5875;35.940;126.892;2023-04-08T00:18:26;15.10;99.90
11639;DHT22;5875;35.940;126.892;2023-04-08T00:20:54;15.50;99.90
11639;DHT22;5875;35.940;126.892;2023-04-08T00:23:22;16.40;99.90
11639;DHT22;5875;35.940;126.892;2023-04-08T00:25:50;16.10;99.90
11639;DHT22;5875;35.940;126.892;2023-04-08T00:28:18;16.70;99.90
11639;DHT22;5875;35.940;126.892;2023-04-08T00:30:45;17.20;99.90
11639;DHT22;5875;35.940;126.892;2023-04-08T00:33:12;17.60;99.90
11639;DHT22;5875;35.940;126.892;2023-04-08T00:35:39;18.00;99.90
11639;DHT22;5875;35.940;126.892;2023-04-08T00:38:06;18.30;99.90
11639;DHT22;5875;35.940;126.892;2023-04-08T00:40:34;18.80;99.90
11639;DHT22;5875;35.940;126.892;2023-04-08T00:43:01;19.40;99.90
11639;DHT22;5875;35.940;126.892;2023-04-08T00:45:28;19.60;99.90
11639;DHT22;5875;35.940;126.892;2023-04-08T00:47:56;19.60;99.90
11639;DHT22;5875;35.940;126.892;2023-04-08T00:50:24;19.40;99.90
11639;DHT22;5875;35.940;126.892;2023-04-08T00:52:51;19.50;99.90
11639;DHT22;5875;35.940;126.892;2023-04-08T00:55:18;19.90;99.90
11639;DHT22;5875;35.940;126.892;2023-04-08T00:57:46;20.10;99.90
11639;DHT22;5875;35.940;126.892;2023-04-08T01:00:14;20.40;99.90
11639;DHT22;5875;35.940;126.892;2023-04-08T01:02:56;20.00;99.90
11639;DHT22;5875;35.940;126.892;2023-04-08T01:05:59;19.90;99.90
11639;DHT22;5875;35.940;126.892;2023-04-08T01:08:30;19.10;99.90
11639;DHT22;5875;35.940;126.892;2023-04-08T01:11:01;19.20;99.90
11639;DHT22;5875;35.940;126.892;2023-04-08T01:13:33;19.70;99.90
11639;DHT22;5875;35.940;126.892;2023-04-08T01:16:03;19.80;99.90
11639;DHT22;5875;35.940;126.892;2023-04-08T01:18:30;20.50;99.90
11639;DHT22;5875;35.940;126.892;2023-04-08T01:20:58;21.00;99.90
11639;DHT22;5875;35.940;126.892;2023-04-08T01:26:25;21.30;99.90
11639;DHT22;5875;35.940;126.892;2023-04-08T01:28:58;21.40;99.90
11639;DHT22;5875;35.940;126.892;2023-04-08T01:31:27;21.70;99.90
11639;DHT22;5875;35.940;126.892;2023-04-08T01:33:54;21.60;99.90
11639;DHT22;5875;35.940;126.892;2023-04-08T01:36:22;21.50;99.90
11639;DHT22;5875;35.940;126.892;2023-04-08T01:38:50;21.30;99.90
11639;DHT22;5875;35.940;126.892;2023-04-08T01:41:18;20.50;99.90
11639;DHT22;5875;35.940;126.892;2023-04-08T01:43:47;21.30;99.90
11639;DHT22;5875;35.940;126.892;2023-04-08T01:46:14;21.80;99.90
11639;DHT22;5875;35.940;126.892;2023-04-08T01:48:42;22.40;99.90
11639;DHT22;5875;35.940;126.892;2023-04-08T01:51:11;22.80;99.90
11639;DHT22;5875;35.940;126.892;2023-04-08T01:53:38;22.70;99.90
11639;DHT22;5875;35.940;126.892;2023-04-08T01:56:08;22.70;99.90
11639;DHT22;5875;35.940;126.892;2023-04-08T01:58:41;22.70;99.90
11639;DHT22;5875;35.940;126.892;2023-04-08T02:01:14;23.00;99.90
11639;DHT22;5875;35.940;126.892;2023-04-08T02:03:44;23.10;99.90
11639;DHT22;5875;35.940;126.892;2023-04-08T02:06:13;22.80;99.90
11639;DHT22;5875;35.940;126.892;2023-04-08T02:08:40;22.90;99.90
11639;DHT22;5875;35.940;126.892;2023-04-08T02:11:07;22.50;99.90
11639;DHT22;5875;35.940;126.892;2023-04-08T02:13:35;22.40;99.90
11639;DHT22;5875;35.940;126.892;2023-04-08T02:16:15;22.80;99.90
11639;DHT22;5875;35.940;126.892;2023-04-08T02:18:52;23.20;99.90
11639;DHT22;5875;35.940;126.892;2023-04-08T02:21:27;22.60;99.90
11639;DHT22;5875;35.940;126.892;2023-04-08T02:23:57;22.60;99.90
11639;DHT22;5875;35.940;126.892;2023-04-08T02:26:25;23.20;99.90
11639;DHT22;5875;35.940;126.892;2023-04-08T02:28:53;23.20;99.90
11639;DHT22;5875;35.940;126.892;2023-04-08T02:31:23;23.80;99.90
11639;DHT22;5875;35.940;126.892;2023-04-08T05:55:12;24.20;99.90
11639;DHT22;5875;35.940;126.892;2023-04-08T05:57:40;21.90;1.00
11639;DHT22;5875;35.940;126.892;2023-04-08T06:59:05;21.80;1.00
11639;DHT22;5875;35.940;126.892;2023-04-08T07:01:32;20.10;1.00
11639;DHT22;5875;35.940;126.892;2023-04-08T07:03:59;19.80;1.00
11639;DHT22;5875;35.940;126.892;2023-04-08T07:06:27;19.50;1.00
11639;DHT22;5875;35.940;126.892;2023-04-08T07:08:54;19.50;1.00
11639;DHT22;5875;35.940;126.892;2023-04-08T07:11:22;19.30;1.00
11639;DHT22;5875;35.940;126.892;2023-04-08T07:13:49;19.40;1.00
11639;DHT22;5875;35.940;126.892;2023-04-08T07:16:17;19.30;1.00
11639;DHT22;5875;35.940;126.892;2023-04-08T07:18:45;19.20;1.00
11639;DHT22;5875;35.940;126.892;2023-04-08T09:55:43;19.10;1.00
11639;DHT22;5875;35.940;126.892;2023-04-08T09:58:20;14.70;29.40
11639;DHT22;5875;35.940;126.892;2023-04-08T10:00:54;14.40;27.00
11639;DHT22;5875;35.940;126.892;2023-04-08T10:03:33;14.40;29.90
11639;DHT22;5875;35.940;126.892;2023-04-08T10:06:02;14.40;29.90
11639;DHT22;5875;35.940;126.892;2023-04-08T10:08:30;14.30;32.90
11639;DHT22;5875;35.940;126.892;2023-04-08T10:10:58;14.30;33.40
11639;DHT22;5875;35.940;126.892;2023-04-08T10:13:27;14.10;35.80
11639;DHT22;5875;35.940;126.892;2023-04-08T10:16:17;14.10;35.30
11639;DHT22;5875;35.940;126.892;2023-04-08T10:18:45;14.00;34.90
11639;DHT22;5875;35.940;126.892;2023-04-08T10:23:58;13.80;39.20
11639;DHT22;5875;35.940;126.892;2023-04-08T10:26:38;13.80;41.30
11639;DHT22;5875;35.940;126.892;2023-04-08T10:31:47;13.60;46.50
11639;DHT22;5875;35.940;126.892;2023-04-08T10:34:19;13.70;47.90
11639;DHT22;5875;35.940;126.892;2023-04-08T10:36:48;13.60;48.40
11639;DHT22;5875;35.940;126.892;2023-04-08T10:39:15;13.60;50.90
11639;DHT22;5875;35.940;126.892;2023-04-08T10:41:44;13.50;51.30
11639;DHT22;5875;35.940;126.892;2023-04-08T10:44:29;13.40;51.50
11639;DHT22;5875;35.940;126.892;2023-04-08T10:46:56;13.10;57.00
11639;DHT22;5875;35.940;126.892;2023-04-08T10:49:32;13.20;57.90
11639;DHT22;5875;35.940;126.892;2023-04-08T10:52:00;13.30;59.70
11639;DHT22;5875;35.940;126.892;2023-04-08T10:54:32;13.20;61.10
11639;DHT22;5875;35.940;126.892;2023-04-08T10:56:59;13.20;63.70
11639;DHT22;5875;35.940;126.892;2023-04-08T10:59:31;13.20;68.90
11639;DHT22;5875;35.940;126.892;2023-04-08T11:02:02;13.20;68.40
11639;DHT22;5875;35.940;126.892;2023-04-08T11:04:29;13.10;72.80
11639;DHT22;5875;35.940;126.892;2023-04-08T11:07:05;13.20;71.40
11639;DHT22;5875;35.940;126.892;2023-04-08T11:09:33;13.10;71.30
11639;DHT22;5875;35.940;126.892;2023-04-08T11:12:01;13.10;73.90
11639;DHT22;5875;35.940;126.892;2023-04-08T11:14:29;13.10;74.20
11639;DHT22;5875;35.940;126.892;2023-04-08T11:16:58;13.00;75.10
11639;DHT22;5875;35.940;126.892;2023-04-08T11:19:26;12.90;77.20
11639;DHT22;5875;35.940;126.892;2023-04-08T11:21:54;12.70;79.50
11639;DHT22;5875;35.940;126.892;2023-04-08T11:24:22;12.60;85.20
11639;DHT22;5875;35.940;126.892;2023-04-08T11:26:49;12.40;87.70
11639;DHT22;5875;35.940;126.892;2023-04-08T11:29:17;12.30;91.80
11639;DHT22;5875;35.940;126.892;2023-04-08T11:31:44;12.30;93.70
11639;DHT22;5875;35.940;126.892;2023-04-08T11:34:21;12.20;94.00
11639;DHT22;5875;35.940;126.892;2023-04-08T11:36:51;12.20;95.10
11639;DHT22;5875;35.940;126.892;2023-04-08T11:39:21;12.20;95.60
11639;DHT22;5875;35.940;126.892;2023-04-08T11:41:49;11.30;93.40
11639;DHT22;5875;35.940;126.892;2023-04-08T11:44:16;10.50;99.90
11639;DHT22;5875;35.940;126.892;2023-04-08T11:46:52;10.00;99.90
11639;DHT22;5875;35.940;126.892;2023-04-08T11:49:22;9.50;99.90
11639;DHT22;5875;35.940;126.892;2023-04-08T11:51:58;8.90;99.90
11639;DHT22;5875;35.940;126.892;2023-04-08T11:54:29;8.80;99.90
11639;DHT22;5875;35.940;126.892;2023-04-08T11:56:57;8.50;99.90
11639;DHT22;5875;35.940;126.892;2023-04-08T11:59:25;8.60;99.90
11639;DHT22;5875;35.940;126.892;2023-04-08T12:01:52;9.20;99.90
11639;DHT22;5875;35.940;126.892;2023-04-08T12:04:20;9.20;99.90
11639;DHT22;5875;35.940;126.892;2023-04-08T12:06:47;9.00;99.90
11639;DHT22;5875;35.940;126.892;2023-04-08T12:09:15;8.80;99.90
11639;DHT22;5875;35.940;126.892;2023-04-08T12:11:42;8.70;99.90
11639;DHT22;5875;35.940;126.892;2023-04-08T12:14:09;8.90;99.90
11639;DHT22;5875;35.940;126.892;2023-04-08T12:16:36;9.40;99.90
11639;DHT22;5875;35.940;126.892;2023-04-08T12:19:04;9.50;99.90
11639;DHT22;5875;35.940;126.892;2023-04-08T12:21:31;9.50;99.90
11639;DHT22;5875;35.940;126.892;2023-04-08T12:23:59;9.40;99.90
11639;DHT22;5875;35.940;126.892;2023-04-08T12:26:27;9.60;99.90
11639;DHT22;5875;35.940;126.892;2023-04-08T12:28:54;9.20;99.90
11639;DHT22;5875;35.940;126.892;2023-04-08T12:31:21;9.10;99.90
11639;DHT22;5875;35.940;126.892;2023-04-08T12:33:48;9.60;99.90
11639;DHT22;5875;35.940;126.892;2023-04-08T12:36:15;9.70;99.90
11639;DHT22;5875;35.940;126.892;2023-04-08T12:38:42;9.70;99.90
11639;DHT22;5875;35.940;126.892;2023-04-08T12:41:10;9.90;99.90
11639;DHT22;5875;35.940;126.892;2023-04-08T12:43:37;9.80;99.90
11639;DHT22;5875;35.940;126.892;2023-04-08T12:46:04;9.80;99.90
11639;DHT22;5875;35.940;126.892;2023-04-08T12:48:32;9.70;99.90
11639;DHT22;5875;35.940;126.892;2023-04-08T12:51:05;9.00;99.90
11639;DHT22;5875;35.940;126.892;2023-04-08T12:53:35;8.50;99.90
11639;DHT22;5875;35.940;126.892;2023-04-08T12:56:02;8.20;99.90
11639;DHT22;5875;35.940;126.892;2023-04-08T12:58:29;8.20;99.90
11639;DHT22;5875;35.940;126.892;2023-04-08T13:00:57;8.10;99.90
11639;DHT22;5875;35.940;126.892;2023-04-08T13:03:24;8.10;99.90
11639;DHT22;5875;35.940;126.892;2023-04-08T13:05:53;8.00;99.90
11639;DHT22;5875;35.940;126.892;2023-04-08T13:08:21;8.30;99.90
11639;DHT22;5875;35.940;126.892;2023-04-08T13:10:48;8.10;99.90
11639;DHT22;5875;35.940;126.892;2023-04-08T13:13:15;8.20;99.90
11639;DHT22;5875;35.940;126.892;2023-04-08T13:15:44;8.60;99.90
11639;DHT22;5875;35.940;126.892;2023-04-08T13:18:12;8.70;99.90
11639;DHT22;5875;35.940;126.892;2023-04-08T13:20:40;8.70;99.90
11639;DHT22;5875;35.940;126.892;2023-04-08T13:23:07;8.50;99.90
11639;DHT22;5875;35.940;126.892;2023-04-08T13:25:34;8.30;99.90
11639;DHT22;5875;35.940;126.892;2023-04-08T13:28:01;8.40;99.90
11639;DHT22;5875;35.940;126.892;2023-04-08T13:30:29;8.60;99.90
11639;DHT22;5875;35.940;126.892;2023-04-08T13:32:56;8.80;99.90
11639;DHT22;5875;35.940;126.892;2023-04-08T13:35:23;8.60;99.90
11639;DHT22;5875;35.940;126.892;2023-04-08T13:37:50;9.00;99.90
11639;DHT22;5875;35.940;126.892;2023-04-08T13:40:18;9.20;99.90
11639;DHT22;5875;35.940;126.892;2023-04-08T13:42:45;9.40;99.90
11639;DHT22;5875;35.940;126.892;2023-04-08T13:45:13;9.50;99.90
11639;DHT22;5875;35.940;126.892;2023-04-08T13:47:44;9.50;99.90
11639;DHT22;5875;35.940;126.892;2023-04-08T13:50:12;9.50;99.90
11639;DHT22;5875;35.940;126.892;2023-04-08T13:52:39;9.60;99.90
11639;DHT22;5875;35.940;126.892;2023-04-08T13:55:08;9.50;99.90
11639;DHT22;5875;35.940;126.892;2023-04-08T13:57:37;9.30;99.90
11639;DHT22;5875;35.940;126.892;2023-04-08T14:00:04;9.30;99.90
11639;DHT22;5875;35.940;126.892;2023-04-08T14:02:33;9.40;99.90
11639;DHT22;5875;35.940;126.892;2023-04-08T14:05:03;9.50;99.90
11639;DHT22;5875;35.940;126.892;2023-04-08T14:07:31;9.50;99.90
11639;DHT22;5875;35.940;126.892;2023-04-08T14:09:58;8.90;99.90
11639;DHT22;5875;35.940;126.892;2023-04-08T14:12:25;7.90;99.90
11639;DHT22;5875;35.940;126.892;2023-04-08T14:14:52;7.30;99.90
11639;DHT22;5875;35.940;126.892;2023-04-08T14:17:20;6.90;99.90
11639;DHT22;5875;35.940;126.892;2023-04-08T14:19:47;6.80;99.90
11639;DHT22;5875;35.940;126.892;2023-04-08T14:22:14;6.60;99.90
11639;DHT22;5875;35.940;126.892;2023-04-08T14:24:42;6.40;99.90
11639;DHT22;5875;35.940;126.892;2023-04-08T14:27:09;6.30;99.90
11639;DHT22;5875;35.940;126.892;2023-04-08T14:29:36;6.30;99.90
11639;DHT22;5875;35.940;126.892;2023-04-08T14:32:04;6.30;99.90
11639;DHT22;5875;35.940;126.892;2023-04-08T14:34:31;6.20;99.90
11639;DHT22;5875;35.940;126.892;2023-04-08T14:36:58;6.00;99.90
11639;DHT22;5875;35.940;126.892;2023-04-08T14:39:25;5.80;99.90
11639;DHT22;5875;35.940;126.892;2023-04-08T14:41:53;5.80;99.90
11639;DHT22;5875;35.940;126.892;2023-04-08T14:44:22;5.80;99.90
11639;DHT22;5875;35.940;126.892;2023-04-08T14:46:50;5.90;99.90
11639;DHT22;5875;35.940;126.892;2023-04-08T14:49:17;6.10;99.90
11639;DHT22;5875;35.940;126.892;2023-04-08T14:51:44;6.00;99.90
11639;DHT22;5875;35.940;126.892;2023-04-08T14:54:11;6.00;99.90
11639;DHT22;5875;35.940;126.892;2023-04-08T14:56:39;6.00;99.90
11639;DHT22;5875;35.940;126.892;2023-04-08T14:59:06;6.00;99.90
11639;DHT22;5875;35.940;126.892;2023-04-08T15:01:34;6.10;99.90
11639;DHT22;5875;35.940;126.892;2023-04-08T15:04:01;6.30;99.90
11639;DHT22;5875;35.940;126.892;2023-04-08T15:06:28;6.20;99.90
11639;DHT22;5875;35.940;126.892;2023-04-08T15:08:56;6.10;99.90
11639;DHT22;5875;35.940;126.892;2023-04-08T15:11:23;6.10;99.90
11639;DHT22;5875;35.940;126.892;2023-04-08T15:13:51;6.20;99.90
11639;DHT22;5875;35.940;126.892;2023-04-08T15:16:18;6.10;99.90
11639;DHT22;5875;35.940;126.892;2023-04-08T15:18:45;6.20;99.90
11639;DHT22;5875;35.940;126.892;2023-04-08T15:21:12;6.00;99.90
11639;DHT22;5875;35.940;126.892;2023-04-08T15:23:39;5.90;99.90
11639;DHT22;5875;35.940;126.892;2023-04-08T15:26:09;5.80;99.90
11639;DHT22;5875;35.940;126.892;2023-04-08T15:28:38;5.90;99.90
11639;DHT22;5875;35.940;126.892;2023-04-08T15:31:06;6.20;99.90
11639;DHT22;5875;35.940;126.892;2023-04-08T15:33:33;6.00;99.90
11639;DHT22;5875;35.940;126.892;2023-04-08T15:36:01;5.90;99.90
11639;DHT22;5875;35.940;126.892;2023-04-08T15:38:29;6.00;99.90
11639;DHT22;5875;35.940;126.892;2023-04-08T15:41:01;6.30;99.90
11639;DHT22;5875;35.940;126.892;2023-04-08T15:43:29;6.30;99.90
11639;DHT22;5875;35.940;126.892;2023-04-08T15:45:56;6.30;99.90
11639;DHT22;5875;35.940;126.892;2023-04-08T15:48:24;6.20;99.90
11639;DHT22;5875;35.940;126.892;2023-04-08T15:50:52;6.00;99.90
11639;DHT22;5875;35.940;126.892;2023-04-08T15:53:23;5.90;99.90
11639;DHT22;5875;35.940;126.892;2023-04-08T15:55:52;6.00;99.90
11639;DHT22;5875;35.940;126.892;2023-04-08T15:58:19;6.10;99.90
11639;DHT22;5875;35.940;126.892;2023-04-08T16:00:49;6.20;99.90
11639;DHT22;5875;35.940;126.892;2023-04-08T16:03:17;6.20;99.90
11639;DHT22;5875;35.940;126.892;2023-04-08T16:05:48;6.40;99.90
11639;DHT22;5875;35.940;126.892;2023-04-08T16:08:18;6.60;99.90
11639;DHT22;5875;35.940;126.892;2023-04-08T16:10:48;7.00;99.90
11639;DHT22;5875;35.940;126.892;2023-04-08T16:13:15;7.20;99.90
11639;DHT22;5875;35.940;126.892;2023-04-08T16:15:45;7.30;99.90
11639;DHT22;5875;35.940;126.892;2023-04-08T16:18:15;7.50;99.90
11639;DHT22;5875;35.940;126.892;2023-04-08T16:20:43;7.30;99.90
11639;DHT22;5875;35.940;126.892;2023-04-08T16:23:11;7.30;99.90
11639;DHT22;5875;35.940;126.892;2023-04-08T16:25:42;7.40;99.90
11639;DHT22;5875;35.940;126.892;2023-04-08T16:28:09;7.40;99.90
11639;DHT22;5875;35.940;126.892;2023-04-08T16:30:36;7.30;99.90
11639;DHT22;5875;35.940;126.892;2023-04-08T16:33:04;7.50;99.90
11639;DHT22;5875;35.940;126.892;2023-04-08T16:35:32;7.10;99.90
11639;DHT22;5875;35.940;126.892;2023-04-08T16:37:59;6.60;99.90
11639;DHT22;5875;35.940;126.892;2023-04-08T16:40:26;6.50;99.90
11639;DHT22;5875;35.940;126.892;2023-04-08T16:42:59;6.10;99.90
11639;DHT22;5875;35.940;126.892;2023-04-08T16:45:30;5.90;99.90
11639;DHT22;5875;35.940;126.892;2023-04-08T16:48:00;5.80;99.90
11639;DHT22;5875;35.940;126.892;2023-04-08T16:50:27;5.90;99.90
11639;DHT22;5875;35.940;126.892;2023-04-08T16:52:56;5.70;99.90
11639;DHT22;5875;35.940;126.892;2023-04-08T16:55:23;5.60;99.90
11639;DHT22;5875;35.940;126.892;2023-04-08T16:57:51;5.60;99.90
11639;DHT22;5875;35.940;126.892;2023-04-08T17:00:18;5.60;99.90
11639;DHT22;5875;35.940;126.892;2023-04-08T17:02:46;5.60;99.90
11639;DHT22;5875;35.940;126.892;2023-04-08T17:05:14;5.60;99.90
11639;DHT22;5875;35.940;126.892;2023-04-08T17:07:42;5.80;99.90
11639;DHT22;5875;35.940;126.892;2023-04-08T17:10:09;5.80;99.90
11639;DHT22;5875;35.940;126.892;2023-04-08T17:12:36;5.90;99.90
11639;DHT22;5875;35.940;126.892;2023-04-08T17:15:04;6.20;99.90
11639;DHT22;5875;35.940;126.892;2023-04-08T17:17:31;6.40;99.90
11639;DHT22;5875;35.940;126.892;2023-04-08T17:19:59;6.50;99.90
11639;DHT22;5875;35.940;126.892;2023-04-08T17:22:27;6.80;99.90
11639;DHT22;5875;35.940;126.892;2023-04-08T17:24:54;6.90;99.90
11639;DHT22;5875;35.940;126.892;2023-04-08T17:27:22;7.10;99.90
11639;DHT22;5875;35.940;126.892;2023-04-08T17:29:49;7.10;99.90
11639;DHT22;5875;35.940;126.892;2023-04-08T17:32:23;7.30;99.90
11639;DHT22;5875;35.940;126.892;2023-04-08T17:34:51;7.10;99.90
11639;DHT22;5875;35.940;126.892;2023-04-08T17:37:22;7.00;99.90
11639;DHT22;5875;35.940;126.892;2023-04-08T17:39:49;7.00;99.90
11639;DHT22;5875;35.940;126.892;2023-04-08T17:42:19;7.00;99.90
11639;DHT22;5875;35.940;126.892;2023-04-08T17:44:48;7.00;99.90
11639;DHT22;5875;35.940;126.892;2023-04-08T17:47:15;7.20;99.90
11639;DHT22;5875;35.940;126.892;2023-04-08T17:49:42;7.20;99.90
11639;DHT22;5875;35.940;126.892;2023-04-08T17:52:12;7.30;99.90
11639;DHT22;5875;35.940;126.892;2023-04-08T17:54:40;7.30;99.90
11639;DHT22;5875;35.940;126.892;2023-04-08T17:57:07;6.90;99.90
11639;DHT22;5875;35.940;126.892;2023-04-08T17:59:34;6.90;99.90
11639;DHT22;5875;35.940;126.892;2023-04-08T18:02:04;6.60;99.90
11639;DHT22;5875;35.940;126.892;2023-04-08T18:04:32;6.40;99.90
11639;DHT22;5875;35.940;126.892;2023-04-08T18:07:02;6.10;99.90
11639;DHT22;5875;35.940;126.892;2023-04-08T18:09:30;6.20;99.90
11639;DHT22;5875;35.940;126.892;2023-04-08T18:11:58;6.60;99.90
11639;DHT22;5875;35.940;126.892;2023-04-08T18:14:27;6.50;99.90
11639;DHT22;5875;35.940;126.892;2023-04-08T18:16:54;6.70;99.90
11639;DHT22;5875;35.940;126.892;2023-04-08T18:19:21;6.60;99.90
11639;DHT22;5875;35.940;126.892;2023-04-08T18:21:51;6.40;99.90
11639;DHT22;5875;35.940;126.892;2023-04-08T18:24:18;6.00;99.90
11639;DHT22;5875;35.940;126.892;2023-04-08T18:26:46;5.90;99.90
11639;DHT22;5875;35.940;126.892;2023-04-08T18:29:16;5.60;99.90
11639;DHT22;5875;35.940;126.892;2023-04-08T18:31:49;5.60;99.90
11639;DHT22;5875;35.940;126.892;2023-04-08T18:34:16;5.30;99.90
11639;DHT22;5875;35.940;126.892;2023-04-08T18:36:46;5.20;99.90
11639;DHT22;5875;35.940;126.892;2023-04-08T18:39:13;5.00;99.90
11639;DHT22;5875;35.940;126.892;2023-04-08T18:41:40;5.00;99.90
11639;DHT22;5875;35.940;126.892;2023-04-08T18:44:10;4.90;99.90
11639;DHT22;5875;35.940;126.892;2023-04-08T18:46:38;4.70;99.90
11639;DHT22;5875;35.940;126.892;2023-04-08T18:49:06;4.50;99.90
11639;DHT22;5875;35.940;126.892;2023-04-08T18:51:35;4.40;99.90
11639;DHT22;5875;35.940;126.892;2023-04-08T18:54:02;4.40;99.90
11639;DHT22;5875;35.940;126.892;2023-04-08T18:56:29;4.40;99.90
11639;DHT22;5875;35.940;126.892;2023-04-08T18:58:56;4.30;99.90
11639;DHT22;5875;35.940;126.892;2023-04-08T19:01:24;4.20;99.90
11639;DHT22;5875;35.940;126.892;2023-04-08T19:03:51;4.20;99.90
11639;DHT22;5875;35.940;126.892;2023-04-08T19:06:18;4.00;99.90
11639;DHT22;5875;35.940;126.892;2023-04-08T19:08:48;3.90;99.90
11639;DHT22;5875;35.940;126.892;2023-04-08T19:11:15;3.90;99.90
11639;DHT22;5875;35.940;126.892;2023-04-08T19:13:42;3.80;99.90
11639;DHT22;5875;35.940;126.892;2023-04-08T19:16:09;3.70;99.90
11639;DHT22;5875;35.940;126.892;2023-04-08T19:18:36;3.50;99.90
11639;DHT22;5875;35.940;126.892;2023-04-08T19:21:03;3.50;99.90
11639;DHT22;5875;35.940;126.892;2023-04-08T19:23:31;3.50;99.90
11639;DHT22;5875;35.940;126.892;2023-04-08T19:25:58;3.30;99.90
11639;DHT22;5875;35.940;126.892;2023-04-08T19:28:25;3.30;99.90
11639;DHT22;5875;35.940;126.892;2023-04-08T19:30:52;3.30;99.90
11639;DHT22;5875;35.940;126.892;2023-04-08T19:33:19;3.30;99.90
11639;DHT22;5875;35.940;126.892;2023-04-08T19:35:47;3.30;99.90
11639;DHT22;5875;35.940;126.892;2023-04-08T19:38:15;3.30;99.90
11639;DHT22;5875;35.940;126.892;2023-04-08T19:40:42;3.10;99.90
11639;DHT22;5875;35.940;126.892;2023-04-08T19:43:09;3.00;99.90
11639;DHT22;5875;35.940;126.892;2023-04-08T19:45:36;3.10;99.90
11639;DHT22;5875;35.940;126.892;2023-04-08T19:48:04;3.10;99.90
11639;DHT22;5875;35.940;126.892;2023-04-08T19:50:36;3.20;99.90
11639;DHT22;5875;35.940;126.892;2023-04-08T19:53:04;3.10;99.90
11639;DHT22;5875;35.940;126.892;2023-04-08T19:55:31;3.20;99.90
11639;DHT22;5875;35.940;126.892;2023-04-08T19:58:00;3.10;99.90
11639;DHT22;5875;35.940;126.892;2023-04-08T20:00:27;3.20;99.90
11639;DHT22;5875;35.940;126.892;2023-04-08T20:02:55;3.30;99.90
11639;DHT22;5875;35.940;126.892;2023-04-08T20:05:22;3.40;99.90
11639;DHT22;5875;35.940;126.892;2023-04-08T20:07:49;3.80;99.90
11639;DHT22;5875;35.940;126.892;2023-04-08T20:10:16;4.10;99.90
11639;DHT22;5875;35.940;126.892;2023-04-08T20:12:44;4.40;99.90
11639;DHT22;5875;35.940;126.892;2023-04-08T20:15:11;4.70;99.90
11639;DHT22;5875;35.940;126.892;2023-04-08T20:17:38;4.90;99.90
11639;DHT22;5875;35.940;126.892;2023-04-08T20:20:06;4.90;99.90
11639;DHT22;5875;35.940;126.892;2023-04-08T20:22:34;5.20;99.90
11639;DHT22;5875;35.940;126.892;2023-04-08T20:25:01;5.30;99.90
11639;DHT22;5875;35.940;126.892;2023-04-08T20:27:29;5.40;99.90
11639;DHT22;5875;35.940;126.892;2023-04-08T20:29:56;5.40;99.90
11639;DHT22;5875;35.940;126.892;2023-04-08T20:32:23;5.50;99.90
11639;DHT22;5875;35.940;126.892;2023-04-08T20:34:50;5.60;99.90
11639;DHT22;5875;35.940;126.892;2023-04-08T20:37:18;5.50;99.90
11639;DHT22;5875;35.940;126.892;2023-04-08T20:39:45;5.60;99.90
11639;DHT22;5875;35.940;126.892;2023-04-08T20:42:12;5.70;99.90
11639;DHT22;5875;35.940;126.892;2023-04-08T20:44:39;5.90;99.90
11639;DHT22;5875;35.940;126.892;2023-04-08T20:47:06;5.90;99.90
11639;DHT22;5875;35.940;126.892;2023-04-08T20:49:34;5.90;99.90
11639;DHT22;5875;35.940;126.892;2023-04-08T20:52:05;5.90;99.90
11639;DHT22;5875;35.940;126.892;2023-04-08T20:54:32;5.80;99.90
11639;DHT22;5875;35.940;126.892;2023-04-08T20:56:59;5.80;99.90
11639;DHT22;5875;35.940;126.892;2023-04-08T20:59:27;6.00;99.90
11639;DHT22;5875;35.940;126.892;2023-04-08T21:01:54;6.00;99.90
11639;DHT22;5875;35.940;126.892;2023-04-08T21:04:21;5.80;99.90
11639;DHT22;5875;35.940;126.892;2023-04-08T21:06:49;5.80;99.90
11639;DHT22;5875;35.940;126.892;2023-04-08T21:09:17;5.90;99.90
11639;DHT22;5875;35.940;126.892;2023-04-08T21:11:44;6.00;99.90
11639;DHT22;5875;35.940;126.892;2023-04-08T21:14:11;5.80;99.90
11639;DHT22;5875;35.940;126.892;2023-04-08T21:16:38;5.90;99.90
11639;DHT22;5875;35.940;126.892;2023-04-08T21:19:05;5.90;99.90
11639;DHT22;5875;35.940;126.892;2023-04-08T21:21:33;5.90;99.90
11639;DHT22;5875;35.940;126.892;2023-04-08T21:24:00;6.00;99.90
11639;DHT22;5875;35.940;126.892;2023-04-08T21:26:27;6.00;99.90
11639;DHT22;5875;35.940;126.892;2023-04-08T21:28:54;6.10;99.90
11639;DHT22;5875;35.940;126.892;2023-04-08T21:31:21;6.10;99.90
11639;DHT22;5875;35.940;126.892;2023-04-08T21:33:49;6.30;99.90
11639;DHT22;5875;35.940;126.892;2023-04-08T21:36:16;6.30;99.90
11639;DHT22;5875;35.940;126.892;2023-04-08T21:38:44;6.40;99.90
11639;DHT22;5875;35.940;126.892;2023-04-08T21:41:11;6.40;99.90
11639;DHT22;5875;35.940;126.892;2023-04-08T21:43:38;6.30;99.90
11639;DHT22;5875;35.940;126.892;2023-04-08T21:46:06;6.40;99.90
11639;DHT22;5875;35.940;126.892;2023-04-08T21:49:02;6.30;99.90
11639;DHT22;5875;35.940;126.892;2023-04-08T21:51:29;6.20;99.90
11639;DHT22;5875;35.940;126.892;2023-04-08T21:53:56;6.00;99.90
11639;DHT22;5875;35.940;126.892;2023-04-08T21:56:24;6.20;99.90
11639;DHT22;5875;35.940;126.892;2023-04-08T21:58:51;6.20;99.90
11639;DHT22;5875;35.940;126.892;2023-04-08T22:01:18;6.00;99.90
11639;DHT22;5875;35.940;126.892;2023-04-08T22:03:45;5.90;99.90
11639;DHT22;5875;35.940;126.892;2023-04-08T22:06:13;5.60;99.90
11639;DHT22;5875;35.940;126.892;2023-04-08T22:08:40;5.60;99.90
11639;DHT22;5875;35.940;126.892;2023-04-08T22:11:08;5.80;99.90
11639;DHT22;5875;35.940;126.892;2023-04-08T22:13:35;5.90;99.90
11639;DHT22;5875;35.940;126.892;2023-04-08T22:16:02;6.30;99.90
11639;DHT22;5875;35.940;126.892;2023-04-08T22:18:29;6.30;99.90
11639;DHT22;5875;35.940;126.892;2023-04-08T22:20:57;6.20;99.90
11639;DHT22;5875;35.940;126.892;2023-04-08T22:23:24;6.40;99.90
11639;DHT22;5875;35.940;126.892;2023-04-08T22:25:51;6.60;99.90
11639;DHT22;5875;35.940;126.892;2023-04-08T22:28:18;6.80;99.90
11639;DHT22;5875;35.940;126.892;2023-04-08T22:30:45;7.20;99.90
11639;DHT22;5875;35.940;126.892;2023-04-08T22:33:13;7.60;99.90
11639;DHT22;5875;35.940;126.892;2023-04-08T22:35:40;7.40;99.90
11639;DHT22;5875;35.940;126.892;2023-04-08T22:38:08;7.10;99.90